Pagrindinis puslapis
METAR-TAF:

METAR-TAF

Oro uostai :

Nanning, Kinija

platuma: 22-49N, ilguma: 108-21E, Aukštis: 73 m

Dabartinis oras

Ataskaita buvo paskelbta 35 minutes, ne 13:00 UTC
Vėjas 2 kt nuo kintamojo kryptimis
Temperatūra 27°C
Drėgmė 89%
Slėgis 1006 hPa
Matomumas 10 km arba daugiau
nėra debesų žemiau 1500 m ir nėra kamuolinių lietaus debesų

METAR: ZGNN 291300Z VRB01MPS CAVOK 27/25 Q1006 NOSIG

Laikas: 21:35 (13:35 UTC)

Prognozė

Ataskaita buvo paskelbta 4 valandos ir 25 minutes, ne 09:10 UTC
Prognozė galioja nuo 29 metu 12 UTC su 30 metu 12 UTC
Vėjas 6 kt iš Pietų
Matomumas: 5000 m
Išsisklaidę debesys ne aukštis 3000 ft
rūkana
Laikinai
nuo 29 metu 12 UTC su 29 metu 18 UTC
Mažai debesys ne aukštis 2600 ft, Liūtiniai kamuoliniai debesys.
Išsisklaidę debesys ne aukštis 3000 ft

TAF: ZGNN 290910Z 2912/3012 17003MPS 5000 BR SCT030 TX33/3007Z TN25/2922Z TEMPO 2912/2918 FEW026CB SCT030

Orai ataskaitas ir orų prognozės (METAR, TAF).

turimą stotys yra geltonos ir raudonos taškus žemėlapyje.

Perkelti pele per norėdami pamatyti stoties vardą.

Tada spustelėkite, norėdami matyti oro stebėjimo ir prognozės.

Norėdami pakeisti žemėlapį: spustelėkite ant žalios mygtukų su juodo kryžiaus žemyn,; žalią mygtuką su brūkšneliu, jei norite nutolinti; arba žalių rodyklių gretimoms žemėlapius.


METAR-TAF: